Time;durP1;ratioP1;P1;durP2;ratioP2;P2;SDS_P1;SDS_P2;PMS_P1;PMS_P2;Temp;Humidity;BMP_temperature;BMP_pressure;BME280_temperature;BME280_humidity;BME280_pressure;Samples;Min_cycle;Max_cycle;Signal;HPM_P1;HPM_P2
2022/08/05 04:14:48;;;;;;;10.93;7.67;;;;;;;19.19;81.73;100316.16;5554919;32;258991;-91
2022/08/05 04:17:53;;;;;;;10.95;8.00;;;;;;;19.19;81.73;100316.16;5543104;32;33472;-88
2022/08/05 04:20:59;;;;;;;11.05;7.97;;;;;;;18.78;83.00;100322.28;5544591;32;34294;-88
2022/08/05 04:24:03;;;;;;;8.93;7.75;;;;;;;18.83;83.03;100320.06;5544648;32;34525;-88
2022/08/05 04:27:12;;;;;;;15.80;8.05;;;;;;;18.89;83.09;100318.66;5544444;32;33955;-90
2022/08/05 04:30:15;;;;;;;9.02;7.62;;;;;;;18.96;83.22;100314.47;5544366;32;34449;-88
2022/08/05 04:33:17;;;;;;;8.60;7.45;;;;;;;19.10;82.67;100316.00;5544844;32;34512;-88
2022/08/05 04:36:40;;;;;;;9.13;7.37;;;;;;;19.20;83.14;100317.88;5544595;32;33829;-88
2022/08/05 04:39:51;;;;;;;9.00;7.10;;;;;;;19.42;81.72;100319.53;5545291;32;34434;-88
2022/08/05 04:42:57;;;;;;;8.93;6.97;;;;;;;19.50;81.83;100313.47;5547188;32;34860;-88
2022/08/05 04:46:00;;;;;;;7.47;6.70;;;;;;;19.61;81.13;100325.97;5557375;32;33432;-88
2022/08/05 04:49:03;;;;;;;16.30;6.93;;;;;;;19.77;80.24;100323.59;5623790;26;33771;-90
2022/08/05 04:52:05;;;;;;;6.95;6.20;;;;;;;20.00;79.20;100320.72;5570819;26;33851;-89
2022/08/05 04:55:09;;;;;;;7.97;6.25;;;;;;;20.44;76.73;100322.16;5565312;32;34590;-89
2022/08/05 04:58:17;;;;;;;7.07;6.32;;;;;;;20.63;75.42;100323.12;5568272;32;34444;-89
2022/08/05 05:01:23;;;;;;;6.90;5.80;;;;;;;20.78;74.78;100328.94;5564995;32;34931;-88
2022/08/05 05:04:46;;;;;;;6.97;5.82;;;;;;;20.90;73.40;100322.41;5570899;32;33576;-89
2022/08/05 05:11:32;;;;;;;6.60;5.47;;;;;;;21.63;67.05;100323.56;4909513;30;20160;-89
2022/08/05 05:14:55;;;;;;;5.95;5.07;;;;;;;21.99;64.45;100324.66;5505539;32;34063;-89
2022/08/05 05:17:57;;;;;;;6.55;5.32;;;;;;;21.87;63.22;100315.94;5505110;32;34497;-90
2022/08/05 05:21:02;;;;;;;5.45;4.97;;;;;;;21.86;64.43;100319.63;5504755;32;34111;-89
2022/08/05 05:24:05;;;;;;;7.22;5.85;;;;;;;22.06;64.73;100315.81;5500596;32;33637;-89
2022/08/05 05:27:10;;;;;;;12.45;5.80;;;;;;;22.39;64.27;100319.81;5492185;32;33944;-89
2022/08/05 05:30:18;;;;;;;9.02;6.05;;;;;;;22.52;64.03;100317.59;5492479;32;33893;-89
2022/08/05 05:33:33;;;;;;;6.25;5.62;;;;;;;22.58;64.11;100318.84;5489912;32;34069;-89
2022/08/05 05:36:55;;;;;;;6.75;5.70;;;;;;;22.92;63.27;100309.09;5475326;32;32868;-89
2022/08/05 05:39:58;;;;;;;6.50;5.90;;;;;;;23.89;59.94;100306.16;5473594;32;33854;-89
2022/08/05 05:43:01;;;;;;;6.60;6.00;;;;;;;24.32;57.06;100306.09;5473351;32;33775;-90
2022/08/05 05:46:10;;;;;;;8.13;5.30;;;;;;;24.79;56.27;100303.69;5473778;32;34603;-89
2022/08/05 05:49:20;;;;;;;10.70;5.47;;;;;;;25.58;53.28;100310.28;5473379;32;33804;-89
2022/08/05 05:52:24;;;;;;;14.40;5.45;;;;;;;26.40;51.09;100312.72;5473004;32;33944;-89
2022/08/05 05:55:34;;;;;;;7.30;5.70;;;;;;;26.61;50.25;100310.12;5494901;32;34336;-90
2022/08/05 05:59:17;;;;;;;6.97;5.45;;;;;;;25.53;52.78;100304.53;4838335;26;21175;-89
2022/08/05 06:02:21;;;;;;;9.45;5.95;;;;;;;25.41;53.70;100302.22;5514129;32;34013;-90
2022/08/05 06:05:39;;;;;;;7.72;5.90;;;;;;;25.51;52.17;100302.00;5505405;32;34099;-90
2022/08/05 13:21:14;;;;;;;3.92;3.42;;;;;;;36.04;20.10;100057.53;1539595;26;20107;-90
2022/08/05 13:24:22;;;;;;;5.07;3.60;;;;;;;36.18;20.83;100049.75;5515203;32;34024;-91
2022/08/05 14:28:57;;;;;;;4.30;4.00;;;;;;;35.90;20.63;99988.09;2094558;26;20374;-90
2022/08/05 14:32:13;;;;;;;5.35;3.58;;;;;;;35.69;20.37;99986.97;5512147;32;33989;-91
2022/08/05 14:35:29;;;;;;;4.10;3.78;;;;;;;35.83;20.48;99987.41;5511834;32;34261;-90
2022/08/05 14:39:19;;;;;;;4.10;3.75;;;;;;;35.89;20.38;99983.63;5518645;26;34881;-90
2022/08/05 14:42:25;;;;;;;5.57;3.80;;;;;;;35.53;20.83;99989.47;5544504;26;35003;-90
2022/08/05 14:45:30;;;;;;;6.55;3.55;;;;;;;35.55;20.56;99980.94;5517407;32;32307;-91
2022/08/05 14:48:33;;;;;;;4.15;3.70;;;;;;;35.43;20.80;99981.88;5531882;32;33697;-91
2022/08/05 14:51:40;;;;;;;5.03;3.75;;;;;;;35.51;21.00;99986.13;5542921;26;32934;-90
2022/08/05 14:54:44;;;;;;;6.50;3.70;;;;;;;35.12;21.30;99977.78;5512108;32;34364;-89
2022/08/05 14:57:55;;;;;;;4.47;3.65;;;;;;;35.20;21.28;99975.44;5511288;32;34659;-90
2022/08/05 15:00:58;;;;;;;4.30;3.78;;;;;;;35.40;21.33;99973.28;5511911;32;33872;-90
2022/08/05 15:04:05;;;;;;;4.10;3.80;;;;;;;35.42;21.41;99965.56;5552118;26;32650;-90
2022/08/05 15:07:08;;;;;;;4.90;3.85;;;;;;;35.32;21.47;99961.59;5529649;32;34199;-90
2022/08/05 15:10:11;;;;;;;6.43;3.83;;;;;;;35.39;20.78;99955.06;5573648;26;34148;-90
2022/08/05 15:13:16;;;;;;;4.35;3.90;;;;;;;35.46;20.86;99955.72;5549335;26;35129;-89
